sensor_id;sensor_type;location;lat;lon;timestamp;pressure;altitude;pressure_sealevel;temperature;humidity
70555;BME280;58104;52.744;15.242;2023-11-21T00:00:36;100073.77;;;18.34;50.41
70555;BME280;58104;52.744;15.242;2023-11-21T00:03:02;100072.94;;;18.31;50.36
70555;BME280;58104;52.744;15.242;2023-11-21T00:05:27;100070.90;;;18.25;50.39
70555;BME280;58104;52.744;15.242;2023-11-21T00:07:53;100069.99;;;18.25;50.47
70555;BME280;58104;52.744;15.242;2023-11-21T00:10:18;100074.66;;;18.27;50.42
70555;BME280;58104;52.744;15.242;2023-11-21T00:12:44;100075.69;;;18.32;50.53
70555;BME280;58104;52.744;15.242;2023-11-21T00:15:10;100077.65;;;18.25;50.56
70555;BME280;58104;52.744;15.242;2023-11-21T00:17:34;100077.87;;;18.33;50.56
70555;BME280;58104;52.744;15.242;2023-11-21T00:20:00;100079.26;;;18.28;50.54
70555;BME280;58104;52.744;15.242;2023-11-21T00:22:25;100080.84;;;18.34;50.62
70555;BME280;58104;52.744;15.242;2023-11-21T00:24:50;100089.55;;;18.38;50.69
70555;BME280;58104;52.744;15.242;2023-11-21T00:27:16;100089.79;;;18.34;50.67
70555;BME280;58104;52.744;15.242;2023-11-21T00:29:41;100093.46;;;18.35;50.70
70555;BME280;58104;52.744;15.242;2023-11-21T00:32:07;100098.60;;;18.31;50.65
70555;BME280;58104;52.744;15.242;2023-11-21T00:34:32;100098.97;;;18.31;50.69
70555;BME280;58104;52.744;15.242;2023-11-21T00:36:58;100099.48;;;18.38;50.78
70555;BME280;58104;52.744;15.242;2023-11-21T00:39:23;100100.51;;;18.44;50.74
70555;BME280;58104;52.744;15.242;2023-11-21T00:41:48;100103.69;;;18.33;50.78
70555;BME280;58104;52.744;15.242;2023-11-21T00:44:14;100107.24;;;18.30;50.84
70555;BME280;58104;52.744;15.242;2023-11-21T00:46:39;100112.66;;;18.31;50.86
70555;BME280;58104;52.744;15.242;2023-11-21T00:49:04;100110.82;;;18.39;50.87
70555;BME280;58104;52.744;15.242;2023-11-21T00:51:30;100112.48;;;18.34;50.87
70555;BME280;58104;52.744;15.242;2023-11-21T00:53:55;100113.55;;;18.30;50.99
70555;BME280;58104;52.744;15.242;2023-11-21T00:56:21;100114.45;;;18.32;50.98
70555;BME280;58104;52.744;15.242;2023-11-21T00:58:46;100114.48;;;18.40;51.05
70555;BME280;58104;52.744;15.242;2023-11-21T01:01:11;100118.05;;;18.38;51.15
70555;BME280;58104;52.744;15.242;2023-11-21T01:03:37;100120.49;;;18.38;51.22
70555;BME280;58104;52.744;15.242;2023-11-21T01:06:03;100123.40;;;18.31;51.27
70555;BME280;58104;52.744;15.242;2023-11-21T01:08:27;100126.83;;;18.37;51.44
70555;BME280;58104;52.744;15.242;2023-11-21T01:10:53;100132.39;;;18.29;51.56
70555;BME280;58104;52.744;15.242;2023-11-21T01:13:18;100133.27;;;18.32;51.55
70555;BME280;58104;52.744;15.242;2023-11-21T01:15:44;100134.49;;;18.34;51.60
70555;BME280;58104;52.744;15.242;2023-11-21T01:18:09;100136.13;;;18.36;51.77
70555;BME280;58104;52.744;15.242;2023-11-21T01:20:34;100142.60;;;18.32;51.84
70555;BME280;58104;52.744;15.242;2023-11-21T01:23:00;100147.15;;;18.29;52.30
70555;BME280;58104;52.744;15.242;2023-11-21T01:25:25;100149.03;;;18.26;52.45
70555;BME280;58104;52.744;15.242;2023-11-21T01:27:51;100151.08;;;18.32;52.55
70555;BME280;58104;52.744;15.242;2023-11-21T01:30:17;100149.21;;;18.32;52.61
70555;BME280;58104;52.744;15.242;2023-11-21T01:32:42;100146.55;;;18.38;52.62
70555;BME280;58104;52.744;15.242;2023-11-21T01:35:08;100146.26;;;18.41;52.56
70555;BME280;58104;52.744;15.242;2023-11-21T01:37:33;100148.40;;;18.42;52.57
70555;BME280;58104;52.744;15.242;2023-11-21T01:39:59;100147.67;;;18.36;52.59
70555;BME280;58104;52.744;15.242;2023-11-21T01:42:23;100149.51;;;18.37;52.61
70555;BME280;58104;52.744;15.242;2023-11-21T01:44:48;100147.93;;;18.42;52.65
70555;BME280;58104;52.744;15.242;2023-11-21T01:47:14;100146.85;;;18.43;52.67
70555;BME280;58104;52.744;15.242;2023-11-21T01:49:39;100148.60;;;18.35;52.85
70555;BME280;58104;52.744;15.242;2023-11-21T01:52:05;100147.24;;;18.36;52.87
70555;BME280;58104;52.744;15.242;2023-11-21T01:54:30;100148.94;;;18.36;52.77
70555;BME280;58104;52.744;15.242;2023-11-21T01:56:55;100150.83;;;18.30;52.79
70555;BME280;58104;52.744;15.242;2023-11-21T01:59:21;100152.25;;;18.37;52.81
70555;BME280;58104;52.744;15.242;2023-11-21T02:01:46;100152.24;;;18.33;52.71
70555;BME280;58104;52.744;15.242;2023-11-21T02:04:12;100156.09;;;18.43;52.68
70555;BME280;58104;52.744;15.242;2023-11-21T02:06:37;100156.89;;;18.41;52.74
70555;BME280;58104;52.744;15.242;2023-11-21T02:09:03;100156.40;;;18.43;53.05
70555;BME280;58104;52.744;15.242;2023-11-21T02:11:28;100163.65;;;18.35;53.24
70555;BME280;58104;52.744;15.242;2023-11-21T02:13:53;100165.71;;;18.32;53.35
70555;BME280;58104;52.744;15.242;2023-11-21T02:16:18;100173.05;;;18.37;53.42
70555;BME280;58104;52.744;15.242;2023-11-21T02:18:44;100175.16;;;18.24;53.41
70555;BME280;58104;52.744;15.242;2023-11-21T02:21:09;100182.62;;;18.32;53.37
70555;BME280;58104;52.744;15.242;2023-11-21T02:23:35;100186.72;;;18.25;53.42
70555;BME280;58104;52.744;15.242;2023-11-21T02:26:00;100186.00;;;18.35;53.31
70555;BME280;58104;52.744;15.242;2023-11-21T02:28:25;100187.31;;;18.41;53.30
70555;BME280;58104;52.744;15.242;2023-11-21T02:30:51;100189.31;;;18.33;53.32
70555;BME280;58104;52.744;15.242;2023-11-21T02:33:16;100188.27;;;18.38;53.33
70555;BME280;58104;52.744;15.242;2023-11-21T02:35:42;100189.99;;;18.36;53.25
70555;BME280;58104;52.744;15.242;2023-11-21T02:38:07;100190.19;;;18.33;53.28
70555;BME280;58104;52.744;15.242;2023-11-21T02:40:33;100189.68;;;18.38;53.36
70555;BME280;58104;52.744;15.242;2023-11-21T02:42:58;100194.04;;;18.26;53.39
70555;BME280;58104;52.744;15.242;2023-11-21T02:45:23;100200.34;;;18.35;53.35
70555;BME280;58104;52.744;15.242;2023-11-21T02:47:49;100202.81;;;18.40;53.36
70555;BME280;58104;52.744;15.242;2023-11-21T02:50:14;100200.86;;;18.36;53.35
70555;BME280;58104;52.744;15.242;2023-11-21T02:52:39;100199.07;;;18.28;53.35
70555;BME280;58104;52.744;15.242;2023-11-21T02:55:06;100198.71;;;18.36;53.37
70555;BME280;58104;52.744;15.242;2023-11-21T02:57:30;100197.50;;;18.34;53.38
70555;BME280;58104;52.744;15.242;2023-11-21T02:59:56;100202.16;;;18.33;53.73
70555;BME280;58104;52.744;15.242;2023-11-21T03:02:21;100204.96;;;18.42;53.74
70555;BME280;58104;52.744;15.242;2023-11-21T03:04:48;100200.75;;;18.36;53.92
70555;BME280;58104;52.744;15.242;2023-11-21T03:07:12;100205.33;;;18.36;54.05
70555;BME280;58104;52.744;15.242;2023-11-21T03:09:37;100207.74;;;18.38;53.98
70555;BME280;58104;52.744;15.242;2023-11-21T03:12:03;100206.15;;;18.35;53.91
70555;BME280;58104;52.744;15.242;2023-11-21T03:14:28;100209.76;;;18.34;53.90
70555;BME280;58104;52.744;15.242;2023-11-21T03:16:53;100210.95;;;18.40;54.06
70555;BME280;58104;52.744;15.242;2023-11-21T03:19:19;100208.75;;;18.46;53.94
70555;BME280;58104;52.744;15.242;2023-11-21T03:21:44;100212.39;;;18.46;53.91
70555;BME280;58104;52.744;15.242;2023-11-21T03:24:10;100218.60;;;18.39;53.87
70555;BME280;58104;52.744;15.242;2023-11-21T03:26:35;100220.64;;;18.42;53.84
70555;BME280;58104;52.744;15.242;2023-11-21T03:29:01;100228.71;;;18.31;53.81
70555;BME280;58104;52.744;15.242;2023-11-21T03:31:26;100229.06;;;18.40;53.71
70555;BME280;58104;52.744;15.242;2023-11-21T03:33:51;100231.16;;;18.42;53.78
70555;BME280;58104;52.744;15.242;2023-11-21T03:36:17;100232.66;;;18.37;53.77
70555;BME280;58104;52.744;15.242;2023-11-21T03:38:42;100234.85;;;18.29;53.76
70555;BME280;58104;52.744;15.242;2023-11-21T03:41:07;100237.58;;;18.39;53.73
70555;BME280;58104;52.744;15.242;2023-11-21T03:43:33;100240.73;;;18.36;53.63
70555;BME280;58104;52.744;15.242;2023-11-21T03:45:58;100244.75;;;18.36;53.76
70555;BME280;58104;52.744;15.242;2023-11-21T03:48:24;100249.25;;;18.35;53.82
70555;BME280;58104;52.744;15.242;2023-11-21T03:50:49;100249.54;;;18.29;53.83
70555;BME280;58104;52.744;15.242;2023-11-21T03:53:14;100242.53;;;18.41;53.79
70555;BME280;58104;52.744;15.242;2023-11-21T03:55:40;100244.78;;;18.35;53.78
70555;BME280;58104;52.744;15.242;2023-11-21T03:58:05;100247.80;;;18.36;53.82
70555;BME280;58104;52.744;15.242;2023-11-21T04:00:31;100248.54;;;18.38;53.69
70555;BME280;58104;52.744;15.242;2023-11-21T04:02:56;100251.08;;;18.40;53.69
70555;BME280;58104;52.744;15.242;2023-11-21T04:05:21;100252.75;;;18.41;53.65
70555;BME280;58104;52.744;15.242;2023-11-21T04:07:47;100254.29;;;18.32;53.69
70555;BME280;58104;52.744;15.242;2023-11-21T04:10:12;100257.90;;;18.34;53.67
70555;BME280;58104;52.744;15.242;2023-11-21T04:12:38;100261.31;;;18.47;53.65
70555;BME280;58104;52.744;15.242;2023-11-21T04:15:04;100259.23;;;18.31;53.68
70555;BME280;58104;52.744;15.242;2023-11-21T04:17:28;100261.78;;;18.38;53.69
70555;BME280;58104;52.744;15.242;2023-11-21T04:19:54;100267.74;;;18.33;53.70
70555;BME280;58104;52.744;15.242;2023-11-21T04:22:19;100268.13;;;18.31;53.73
70555;BME280;58104;52.744;15.242;2023-11-21T04:24:44;100269.20;;;18.37;53.71
70555;BME280;58104;52.744;15.242;2023-11-21T04:27:10;100276.66;;;18.43;53.70
70555;BME280;58104;52.744;15.242;2023-11-21T04:29:35;100280.63;;;18.38;53.71
70555;BME280;58104;52.744;15.242;2023-11-21T04:32:01;100288.01;;;18.37;53.72
70555;BME280;58104;52.744;15.242;2023-11-21T04:34:26;100293.05;;;18.37;53.79
70555;BME280;58104;52.744;15.242;2023-11-21T04:36:51;100302.29;;;18.37;54.02
70555;BME280;58104;52.744;15.242;2023-11-21T04:39:17;100305.83;;;18.45;54.01
70555;BME280;58104;52.744;15.242;2023-11-21T04:41:42;100303.72;;;18.37;54.08
70555;BME280;58104;52.744;15.242;2023-11-21T04:44:07;100306.98;;;18.39;54.09
70555;BME280;58104;52.744;15.242;2023-11-21T04:46:33;100306.26;;;18.33;54.11
70555;BME280;58104;52.744;15.242;2023-11-21T04:48:58;100309.86;;;18.39;54.14
70555;BME280;58104;52.744;15.242;2023-11-21T04:51:24;100310.85;;;18.34;54.12
70555;BME280;58104;52.744;15.242;2023-11-21T04:53:49;100309.42;;;18.34;54.15
70555;BME280;58104;52.744;15.242;2023-11-21T04:56:15;100314.39;;;18.45;54.21
70555;BME280;58104;52.744;15.242;2023-11-21T04:58:40;100319.26;;;18.46;54.22
70555;BME280;58104;52.744;15.242;2023-11-21T05:01:07;100327.21;;;18.40;54.26
70555;BME280;58104;52.744;15.242;2023-11-21T05:03:31;100329.10;;;18.35;54.22
70555;BME280;58104;52.744;15.242;2023-11-21T05:05:56;100329.60;;;18.33;54.34
70555;BME280;58104;52.744;15.242;2023-11-21T05:08:21;100335.15;;;18.34;54.36
70555;BME280;58104;52.744;15.242;2023-11-21T05:10:47;100337.41;;;18.35;54.41
70555;BME280;58104;52.744;15.242;2023-11-21T05:13:12;100340.52;;;18.43;54.48
70555;BME280;58104;52.744;15.242;2023-11-21T05:15:37;100341.01;;;18.41;54.55
70555;BME280;58104;52.744;15.242;2023-11-21T05:18:03;100341.46;;;18.33;54.63
70555;BME280;58104;52.744;15.242;2023-11-21T05:20:28;100347.39;;;18.33;54.76
70555;BME280;58104;52.744;15.242;2023-11-21T05:22:54;100348.49;;;18.34;54.91
70555;BME280;58104;52.744;15.242;2023-11-21T05:25:19;100351.66;;;18.40;54.97
70555;BME280;58104;52.744;15.242;2023-11-21T05:27:45;100355.40;;;18.33;54.97
70555;BME280;58104;52.744;15.242;2023-11-21T05:30:11;100357.68;;;18.44;55.03
70555;BME280;58104;52.744;15.242;2023-11-21T05:32:35;100364.28;;;18.41;55.09
70555;BME280;58104;52.744;15.242;2023-11-21T05:35:01;100369.61;;;18.41;55.17
70555;BME280;58104;52.744;15.242;2023-11-21T05:37:26;100373.17;;;18.33;55.26
70555;BME280;58104;52.744;15.242;2023-11-21T05:39:52;100373.79;;;18.29;55.64
70555;BME280;58104;52.744;15.242;2023-11-21T05:42:17;100375.88;;;18.38;55.78
70555;BME280;58104;52.744;15.242;2023-11-21T05:44:43;100378.54;;;18.31;55.84
70555;BME280;58104;52.744;15.242;2023-11-21T05:47:08;100386.93;;;18.39;55.92
70555;BME280;58104;52.744;15.242;2023-11-21T05:49:33;100394.55;;;18.38;56.14
70555;BME280;58104;52.744;15.242;2023-11-21T05:51:59;100395.81;;;18.42;56.22
70555;BME280;58104;52.744;15.242;2023-11-21T05:54:24;100401.45;;;18.40;56.23
70555;BME280;58104;52.744;15.242;2023-11-21T05:56:49;100411.28;;;18.40;56.34
70555;BME280;58104;52.744;15.242;2023-11-21T05:59:14;100415.03;;;18.39;56.52
70555;BME280;58104;52.744;15.242;2023-11-21T06:01:40;100417.02;;;18.55;57.06
70555;BME280;58104;52.744;15.242;2023-11-21T06:04:06;100416.61;;;18.64;57.29
70555;BME280;58104;52.744;15.242;2023-11-21T06:06:31;100423.76;;;18.62;57.53
70555;BME280;58104;52.744;15.242;2023-11-21T06:08:56;100428.99;;;18.57;57.71
70555;BME280;58104;52.744;15.242;2023-11-21T06:11:21;100433.37;;;18.58;57.76
70555;BME280;58104;52.744;15.242;2023-11-21T06:13:47;100440.48;;;18.61;57.54
70555;BME280;58104;52.744;15.242;2023-11-21T06:16:12;100444.13;;;18.66;57.60
70555;BME280;58104;52.744;15.242;2023-11-21T06:18:38;100452.00;;;18.63;57.47
70555;BME280;58104;52.744;15.242;2023-11-21T06:21:03;100461.01;;;18.54;57.37
70555;BME280;58104;52.744;15.242;2023-11-21T06:23:28;100465.15;;;18.53;57.23
70555;BME280;58104;52.744;15.242;2023-11-21T06:25:54;100468.09;;;18.57;57.23
70555;BME280;58104;52.744;15.242;2023-11-21T06:28:19;100467.68;;;18.50;57.09
70555;BME280;58104;52.744;15.242;2023-11-21T06:30:45;100476.63;;;18.50;57.19
70555;BME280;58104;52.744;15.242;2023-11-21T06:33:10;100476.45;;;18.52;56.15
70555;BME280;58104;52.744;15.242;2023-11-21T06:35:36;100475.72;;;18.51;55.48
70555;BME280;58104;52.744;15.242;2023-11-21T06:38:01;100474.78;;;18.28;53.24
70555;BME280;58104;52.744;15.242;2023-11-21T06:40:27;100482.55;;;18.06;51.60
70555;BME280;58104;52.744;15.242;2023-11-21T06:42:52;100488.58;;;18.03;50.01
70555;BME280;58104;52.744;15.242;2023-11-21T06:45:17;100492.81;;;17.97;48.27
70555;BME280;58104;52.744;15.242;2023-11-21T06:47:43;100494.60;;;17.83;47.78
70555;BME280;58104;52.744;15.242;2023-11-21T06:50:09;100494.78;;;17.83;46.86
70555;BME280;58104;52.744;15.242;2023-11-21T06:52:33;100494.01;;;18.02;46.81
70555;BME280;58104;52.744;15.242;2023-11-21T06:54:59;100497.29;;;18.03;45.56
70555;BME280;58104;52.744;15.242;2023-11-21T06:57:24;100497.67;;;17.73;44.32
70555;BME280;58104;52.744;15.242;2023-11-21T06:59:50;100499.71;;;17.70;44.17
70555;BME280;58104;52.744;15.242;2023-11-21T07:02:15;100501.64;;;17.62;43.77
70555;BME280;58104;52.744;15.242;2023-11-21T07:04:41;100503.27;;;17.49;43.66
70555;BME280;58104;52.744;15.242;2023-11-21T07:07:06;100508.23;;;17.30;43.49
70555;BME280;58104;52.744;15.242;2023-11-21T07:09:31;100515.18;;;17.25;43.81
70555;BME280;58104;52.744;15.242;2023-11-21T07:11:56;100516.47;;;17.24;42.83
70555;BME280;58104;52.744;15.242;2023-11-21T07:14:22;100521.21;;;17.12;42.77
70555;BME280;58104;52.744;15.242;2023-11-21T07:16:47;100530.15;;;17.19;42.91
70555;BME280;58104;52.744;15.242;2023-11-21T07:19:13;100536.65;;;17.23;42.38
70555;BME280;58104;52.744;15.242;2023-11-21T07:21:39;100537.53;;;17.15;42.64
70555;BME280;58104;52.744;15.242;2023-11-21T07:24:04;100540.08;;;17.11;42.60
70555;BME280;58104;52.744;15.242;2023-11-21T07:26:29;100545.03;;;17.19;42.25
70555;BME280;58104;52.744;15.242;2023-11-21T07:28:55;100548.06;;;16.89;44.07
70555;BME280;58104;52.744;15.242;2023-11-21T07:31:20;100554.03;;;17.50;45.91
70555;BME280;58104;52.744;15.242;2023-11-21T07:33:46;100556.96;;;17.62;47.01
70555;BME280;58104;52.744;15.242;2023-11-21T07:36:11;100556.22;;;17.70;47.80
70555;BME280;58104;52.744;15.242;2023-11-21T07:38:36;100562.08;;;17.79;48.31
70555;BME280;58104;52.744;15.242;2023-11-21T07:41:02;100563.89;;;17.93;48.74
70555;BME280;58104;52.744;15.242;2023-11-21T07:43:27;100564.40;;;18.04;49.05
70555;BME280;58104;52.744;15.242;2023-11-21T07:45:52;100565.04;;;18.11;49.47
70555;BME280;58104;52.744;15.242;2023-11-21T07:48:18;100569.39;;;18.13;49.82
70555;BME280;58104;52.744;15.242;2023-11-21T07:50:44;100570.62;;;18.15;50.02
70555;BME280;58104;52.744;15.242;2023-11-21T07:53:09;100573.46;;;18.17;50.34
70555;BME280;58104;52.744;15.242;2023-11-21T07:55:34;100571.78;;;18.23;50.35
70555;BME280;58104;52.744;15.242;2023-11-21T07:57:59;100574.05;;;18.20;50.30
70555;BME280;58104;52.744;15.242;2023-11-21T08:00:25;100578.56;;;18.18;50.19
70555;BME280;58104;52.744;15.242;2023-11-21T08:02:50;100577.84;;;18.17;50.10
70555;BME280;58104;52.744;15.242;2023-11-21T08:05:16;100580.65;;;18.11;50.12
70555;BME280;58104;52.744;15.242;2023-11-21T08:07:41;100582.49;;;18.09;50.12
70555;BME280;58104;52.744;15.242;2023-11-21T08:10:08;100586.27;;;18.07;50.10
70555;BME280;58104;52.744;15.242;2023-11-21T08:12:32;100595.37;;;18.04;50.04
70555;BME280;58104;52.744;15.242;2023-11-21T08:14:57;100595.14;;;18.07;49.90
70555;BME280;58104;52.744;15.242;2023-11-21T08:17:23;100599.83;;;18.12;49.83
70555;BME280;58104;52.744;15.242;2023-11-21T08:19:48;100601.84;;;18.14;49.73
70555;BME280;58104;52.744;15.242;2023-11-21T08:22:13;100602.79;;;18.12;49.84
70555;BME280;58104;52.744;15.242;2023-11-21T08:24:39;100602.99;;;18.12;49.81
70555;BME280;58104;52.744;15.242;2023-11-21T08:27:04;100602.07;;;18.23;49.93
70555;BME280;58104;52.744;15.242;2023-11-21T08:29:30;100607.93;;;18.20;50.02
70555;BME280;58104;52.744;15.242;2023-11-21T08:31:55;100613.01;;;18.25;50.23
70555;BME280;58104;52.744;15.242;2023-11-21T08:34:20;100622.26;;;18.42;50.34
70555;BME280;58104;52.744;15.242;2023-11-21T08:36:46;100626.83;;;18.36;50.41
70555;BME280;58104;52.744;15.242;2023-11-21T08:39:11;100629.47;;;18.53;50.50
70555;BME280;58104;52.744;15.242;2023-11-21T08:41:36;100634.74;;;18.44;50.63
70555;BME280;58104;52.744;15.242;2023-11-21T08:44:02;100636.56;;;18.37;50.63
70555;BME280;58104;52.744;15.242;2023-11-21T08:46:27;100640.63;;;18.56;50.40
70555;BME280;58104;52.744;15.242;2023-11-21T08:48:53;100645.36;;;18.64;50.45
70555;BME280;58104;52.744;15.242;2023-11-21T08:51:18;100646.66;;;18.55;50.64
70555;BME280;58104;52.744;15.242;2023-11-21T08:53:44;100646.48;;;18.60;50.67
70555;BME280;58104;52.744;15.242;2023-11-21T08:56:12;100649.21;;;18.65;50.68
70555;BME280;58104;52.744;15.242;2023-11-21T08:58:34;100648.36;;;18.63;50.93
70555;BME280;58104;52.744;15.242;2023-11-21T09:01:00;100648.06;;;18.65;50.93
70555;BME280;58104;52.744;15.242;2023-11-21T09:03:25;100648.44;;;18.70;50.85
70555;BME280;58104;52.744;15.242;2023-11-21T09:05:50;100655.19;;;18.67;51.03
70555;BME280;58104;52.744;15.242;2023-11-21T09:08:16;100660.25;;;18.76;51.08
70555;BME280;58104;52.744;15.242;2023-11-21T09:10:41;100664.62;;;18.63;51.31
70555;BME280;58104;52.744;15.242;2023-11-21T09:13:07;100663.61;;;18.62;51.40
70555;BME280;58104;52.744;15.242;2023-11-21T09:15:32;100666.19;;;18.71;51.50
70555;BME280;58104;52.744;15.242;2023-11-21T09:17:58;100666.84;;;18.62;51.42
70555;BME280;58104;52.744;15.242;2023-11-21T09:20:23;100670.08;;;18.63;51.23
70555;BME280;58104;52.744;15.242;2023-11-21T09:22:48;100673.87;;;18.64;51.07
70555;BME280;58104;52.744;15.242;2023-11-21T09:25:14;100679.81;;;18.66;51.10
70555;BME280;58104;52.744;15.242;2023-11-21T09:27:39;100681.88;;;18.77;51.06
70555;BME280;58104;52.744;15.242;2023-11-21T09:30:06;100680.60;;;18.60;51.09
70555;BME280;58104;52.744;15.242;2023-11-21T09:32:30;100679.39;;;18.65;50.94
70555;BME280;58104;52.744;15.242;2023-11-21T09:34:55;100680.72;;;18.79;50.82
70555;BME280;58104;52.744;15.242;2023-11-21T09:37:21;100680.32;;;18.75;50.88
70555;BME280;58104;52.744;15.242;2023-11-21T09:39:46;100681.40;;;18.76;50.89
70555;BME280;58104;52.744;15.242;2023-11-21T09:42:13;100683.54;;;18.77;50.87
70555;BME280;58104;52.744;15.242;2023-11-21T09:44:45;100685.50;;;18.81;50.92
70555;BME280;58104;52.744;15.242;2023-11-21T09:47:03;100686.75;;;18.79;50.96
70555;BME280;58104;52.744;15.242;2023-11-21T09:49:28;100691.62;;;18.81;51.03
70555;BME280;58104;52.744;15.242;2023-11-21T09:51:55;100699.01;;;18.83;50.97
70555;BME280;58104;52.744;15.242;2023-11-21T09:54:18;100701.60;;;18.81;51.03
70555;BME280;58104;52.744;15.242;2023-11-21T09:56:44;100705.02;;;18.87;51.13
70555;BME280;58104;52.744;15.242;2023-11-21T09:59:13;100710.92;;;18.82;51.10
70555;BME280;58104;52.744;15.242;2023-11-21T10:01:36;100721.05;;;18.81;51.17
70555;BME280;58104;52.744;15.242;2023-11-21T10:04:00;100719.61;;;18.86;51.04
70555;BME280;58104;52.744;15.242;2023-11-21T10:06:26;100724.34;;;18.87;51.00
70555;BME280;58104;52.744;15.242;2023-11-21T10:08:51;100726.93;;;18.84;51.12
70555;BME280;58104;52.744;15.242;2023-11-21T10:11:17;100729.79;;;18.74;51.24
70555;BME280;58104;52.744;15.242;2023-11-21T10:13:42;100729.50;;;18.90;51.33
70555;BME280;58104;52.744;15.242;2023-11-21T10:16:07;100734.43;;;18.83;51.23
70555;BME280;58104;52.744;15.242;2023-11-21T10:18:33;100732.85;;;18.90;51.13
70555;BME280;58104;52.744;15.242;2023-11-21T10:20:57;100731.94;;;19.00;50.92
70555;BME280;58104;52.744;15.242;2023-11-21T10:23:23;100736.85;;;19.00;50.94
70555;BME280;58104;52.744;15.242;2023-11-21T10:25:48;100739.30;;;18.95;50.94
70555;BME280;58104;52.744;15.242;2023-11-21T10:28:14;100744.16;;;19.03;50.77
70555;BME280;58104;52.744;15.242;2023-11-21T10:30:39;100749.04;;;19.11;50.88
70555;BME280;58104;52.744;15.242;2023-11-21T10:33:06;100747.76;;;19.06;50.93
70555;BME280;58104;52.744;15.242;2023-11-21T10:35:42;100749.86;;;19.11;50.93
70555;BME280;58104;52.744;15.242;2023-11-21T10:38:00;100756.52;;;19.18;50.77
70555;BME280;58104;52.744;15.242;2023-11-21T10:40:21;100767.69;;;19.20;50.76
70555;BME280;58104;52.744;15.242;2023-11-21T10:42:46;100772.00;;;18.99;50.97
70555;BME280;58104;52.744;15.242;2023-11-21T10:45:11;100774.94;;;19.08;51.02
70555;BME280;58104;52.744;15.242;2023-11-21T10:47:38;100774.10;;;19.16;50.85
70555;BME280;58104;52.744;15.242;2023-11-21T10:50:05;100772.75;;;19.11;50.97
70555;BME280;58104;52.744;15.242;2023-11-21T10:52:28;100776.68;;;19.12;50.67
70555;BME280;58104;52.744;15.242;2023-11-21T10:54:53;100780.15;;;19.00;48.50
70555;BME280;58104;52.744;15.242;2023-11-21T10:57:20;100780.96;;;18.35;47.17
70555;BME280;58104;52.744;15.242;2023-11-21T10:59:46;100775.65;;;18.21;46.84
70555;BME280;58104;52.744;15.242;2023-11-21T11:02:18;100770.82;;;17.90;45.39
70555;BME280;58104;52.744;15.242;2023-11-21T11:04:35;100773.71;;;17.75;45.48
70555;BME280;58104;52.744;15.242;2023-11-21T11:07:03;100771.82;;;17.90;46.59
70555;BME280;58104;52.744;15.242;2023-11-21T11:09:26;100774.34;;;18.30;46.28
70555;BME280;58104;52.744;15.242;2023-11-21T11:11:51;100778.13;;;18.49;46.15
70555;BME280;58104;52.744;15.242;2023-11-21T11:14:17;100781.02;;;18.65;46.03
70555;BME280;58104;52.744;15.242;2023-11-21T11:16:42;100786.81;;;18.66;46.19
70555;BME280;58104;52.744;15.242;2023-11-21T11:19:07;100787.73;;;18.66;46.26
70555;BME280;58104;52.744;15.242;2023-11-21T11:21:42;100784.61;;;18.80;46.24
70555;BME280;58104;52.744;15.242;2023-11-21T11:24:11;100785.21;;;18.62;47.07
70555;BME280;58104;52.744;15.242;2023-11-21T11:26:32;100786.19;;;18.64;47.52
70555;BME280;58104;52.744;15.242;2023-11-21T11:28:56;100786.91;;;18.70;47.89
70555;BME280;58104;52.744;15.242;2023-11-21T11:31:21;100788.42;;;18.76;48.19
70555;BME280;58104;52.744;15.242;2023-11-21T11:33:45;100791.00;;;18.85;48.24
70555;BME280;58104;52.744;15.242;2023-11-21T11:36:08;100794.98;;;18.83;48.58
70555;BME280;58104;52.744;15.242;2023-11-21T11:38:32;100794.87;;;18.88;48.78
70555;BME280;58104;52.744;15.242;2023-11-21T11:40:56;100800.41;;;18.97;48.99
70555;BME280;58104;52.744;15.242;2023-11-21T11:43:27;100805.16;;;19.00;49.20
70555;BME280;58104;52.744;15.242;2023-11-21T11:45:46;100808.24;;;18.90;49.41
70555;BME280;58104;52.744;15.242;2023-11-21T11:48:12;100814.03;;;18.98;49.54
70555;BME280;58104;52.744;15.242;2023-11-21T11:50:37;100819.63;;;19.07;49.48
70555;BME280;58104;52.744;15.242;2023-11-21T11:53:13;100819.41;;;19.00;49.59
70555;BME280;58104;52.744;15.242;2023-11-21T11:55:28;100828.59;;;18.88;49.82
70555;BME280;58104;52.744;15.242;2023-11-21T11:57:54;100822.16;;;19.04;49.29
70555;BME280;58104;52.744;15.242;2023-11-21T12:00:20;100830.14;;;18.98;49.25
70555;BME280;58104;52.744;15.242;2023-11-21T12:02:46;100829.89;;;18.95;49.07
70555;BME280;58104;52.744;15.242;2023-11-21T12:05:11;100833.01;;;19.22;48.47
70555;BME280;58104;52.744;15.242;2023-11-21T12:07:45;100835.16;;;19.05;48.50
70555;BME280;58104;52.744;15.242;2023-11-21T12:10:01;100834.95;;;19.12;48.32
70555;BME280;58104;52.744;15.242;2023-11-21T12:12:26;100841.30;;;19.09;48.17
70555;BME280;58104;52.744;15.242;2023-11-21T12:14:51;100849.26;;;19.09;48.23
70555;BME280;58104;52.744;15.242;2023-11-21T12:17:17;100855.21;;;19.06;48.23
70555;BME280;58104;52.744;15.242;2023-11-21T12:19:42;100861.98;;;19.01;48.17
70555;BME280;58104;52.744;15.242;2023-11-21T12:22:07;100860.95;;;19.00;48.22
70555;BME280;58104;52.744;15.242;2023-11-21T12:24:33;100863.94;;;18.97;48.15
70555;BME280;58104;52.744;15.242;2023-11-21T12:26:58;100871.76;;;18.97;48.34
70555;BME280;58104;52.744;15.242;2023-11-21T12:29:23;100874.99;;;18.96;48.36